DW4387 Weather Reports


Display with metric or nautical units.
time (UTC)temp
F
wind
direction
speed
MPH
gust
MPH
rain 1hr
in
rain 24hr
in
rain mn
in
humidity
%
barometer
mb
20191014025607 56 248 2.0 2.0 0.00 0.00 0.00 56 1010.0
20191014024608 56 203 0.0 0.0 0.00 0.00 0.00 57 1010.1
20191014023609 56 203 0.0 0.0 0.00 0.00 0.00 57 1010.0
20191014023107 56 225 0.0 0.0 0.00 0.00 0.00 57 1010.0
20191014022608 56 203 0.0 0.0 0.00 0.00 0.00 57 1010.0
20191014022107 56 203 2.0 2.0 0.00 0.00 0.00 58 1009.7
20191014020608 56 248 0.0 0.0 0.00 0.00 0.00 58 1009.5
20191014020107 56 248 1.0 1.0 0.00 0.00 0.00 58 1009.6
20191014014609 56 248 0.0 0.0 0.00 0.00 0.00 58 1009.5
20191014014108 56 270 3.0 3.0 0.00 0.00 0.00 58 1009.4
20191014013608 57 248 0.0 0.0 0.00 0.00 0.00 58 1009.1
20191014013107 57 248 0.0 0.0 0.00 0.00 0.00 58 1009.3
20191014012607 57 203 4.0 4.0 0.00 0.00 0.00 58 1009.1
20191014012108 57 270 0.0 0.0 0.00 0.00 0.00 58 1009.1
20191014005608 57 270 0.0 0.0 0.00 0.00 0.00 59 1008.9
20191014005108 57 203 0.0 0.0 0.00 0.00 0.00 59 1008.8
20191014004608 57 180 1.0 1.0 0.00 0.00 0.00 59 1008.6
20191014004108 58 225 0.0 0.0 0.00 0.00 0.00 59 1008.5
20191014003607 58 225 0.0 0.0 0.00 0.00 0.00 59 1008.5
20191014003107 58 180 0.0 0.0 0.00 0.00 0.00 59 1008.4
20191014002608 58 315 1.0 1.0 0.00 0.00 0.00 58 1008.4
20191014002108 58 203 0.0 0.0 0.00 0.00 0.00 58 1008.4
20191014001607 58 293 5.0 5.0 0.00 0.00 0.00 58 1008.2
20191014001107 58 270 0.0 2.0 0.00 0.00 0.00 58 1008.0
20191014000107 58 248 3.0 3.0 0.00 0.00 0.00 58 1008.2
20191013235607 58 270 3.0 3.0 0.00 0.00 0.00 58 1008.2
20191013233607 58 270 2.0 2.0 0.00 0.00 0.00 57 1007.9
20191013232108 58 203 2.0 2.0 0.00 0.00 0.00 57 1007.9
20191013231607 59 270 2.0 2.0 0.00 0.00 0.00 57 1007.6
20191013230608 59 270 2.0 2.0 0.00 0.00 0.00 56 1007.5
20191013230107 59 225 0.0 0.0 0.00 0.00 0.00 56 1007.4
20191013223608 60 248 2.0 2.0 0.00 0.00 0.00 53 1007.1
20191013223107 60 203 6.0 6.0 0.00 0.00 0.00 53 1007.0
20191013222108 60 180 4.0 4.0 0.00 0.00 0.00 52 1007.0
20191013220108 60 293 1.0 1.0 0.00 0.00 0.00 50 1006.5
20191013215607 60 225 0.0 0.0 0.00 0.00 0.00 50 1006.3
20191013215108 60 248 0.0 0.0 0.00 0.00 0.00 50 1006.3
20191013213608 60 225 0.0 0.0 0.00 0.00 0.00 50 1006.0
20191013213107 61 203 0.0 0.0 0.00 0.00 0.00 50 1005.9
20191013212607 61 248 4.0 4.0 0.00 0.00 0.00 50 1005.8
20191013212108 61 225 2.0 2.0 0.00 0.00 0.00 50 1005.7
20191013211607 61 248 0.0 0.0 0.00 0.00 0.00 49 1005.7
20191013211108 61 248 3.0 3.0 0.00 0.00 0.00 49 1005.6
20191013210608 62 225 0.0 0.0 0.00 0.00 0.00 49 1005.5
20191013210107 62 203 6.0 6.0 0.00 0.00 0.00 48 1005.2
20191013205108 62 270 2.0 2.0 0.00 0.00 0.00 48 1005.2
20191013204608 62 203 0.0 0.0 0.00 0.00 0.00 48 1005.1
20191013202108 62 203 0.0 0.0 0.00 0.00 0.00 49 1004.9
20191013201108 62 203 0.0 0.0 0.00 0.00 0.00 49 1004.8
20191013200608 62 293 0.0 0.0 0.00 0.00 0.00 49 1004.7
20191013200108 62 248 0.0 0.0 0.00 0.00 0.00 49 1004.6
20191013195107 62 293 3.0 3.0 0.00 0.00 0.00 49 1004.3
20191013194608 62 180 2.0 2.0 0.00 0.00 0.00 50 1004.4
20191013193108 62 270 4.0 4.0 0.00 0.00 0.00 51 1004.2
20191013192608 62 203 3.0 3.0 0.00 0.00 0.00 51 1003.9
20191013192108 63 248 3.0 3.0 0.00 0.00 0.00 52 1004.1
20191013191608 63 270 3.0 3.0 0.00 0.00 0.00 53 1004.1
20191013191108 63 203 6.0 6.0 0.00 0.00 0.00 53 1004.2
20191013185607 64 180 4.0 4.0 0.00 0.00 0.00 54 1004.1
20191013185107 65 248 4.0 4.0 0.00 0.00 0.00 53 1004.3
20191013184608 65 248 2.0 2.0 0.00 0.00 0.00 53 1003.9
20191013184108 65 225 0.0 0.0 0.00 0.00 0.00 53 1003.2
20191013183108 65 180 0.0 0.0 0.00 0.00 0.00 52 1003.2
20191013182108 65 203 0.0 0.0 0.00 0.00 0.00 52 1003.0
20191013180108 64 225 3.0 3.0 0.00 0.00 0.00 50 1003.0
20191013175108 64 180 10.0 10.0 0.00 0.00 0.00 50 1002.9
20191013174607 64 203 0.0 0.0 0.00 0.00 0.00 50 1002.9
20191013174108 64 180 1.0 1.0 0.00 0.00 0.00 50 1002.8
20191013172608 64 180 0.0 0.0 0.00 0.00 0.00 50 1002.8
20191013172108 64 203 0.0 0.0 0.00 0.00 0.00 50 1002.9
20191013171608 64 203 0.0 0.0 0.00 0.00 0.00 50 1002.8
20191013170608 64 180 0.0 0.0 0.00 0.00 0.00 50 1002.8
20191013170108 64 203 1.0 1.0 0.00 0.00 0.00 50 1002.8
20191013165608 64 225 0.0 0.0 0.00 0.00 0.00 50 1002.7
20191013163608 64 225 0.0 0.0 0.00 0.00 0.00 50 1002.8
20191013163108 64 203 0.0 0.0 0.00 0.00 0.00 50 1002.9
20191013162607 64 225 5.0 5.0 0.00 0.00 0.00 50 1002.9
20191013161107 64 180 0.0 0.0 0.00 0.00 0.00 50 1002.8
20191013160608 64 203 1.0 1.0 0.00 0.00 0.00 50 1002.9
20191013160108 64 203 0.0 0.0 0.00 0.00 0.00 50 1003.1
20191013155608 64 203 0.0 0.0 0.00 0.00 0.00 50 1003.0
20191013155108 64 225 0.0 0.0 0.00 0.00 0.00 50 1002.9
20191013154608 64 180 0.0 0.0 0.00 0.00 0.00 50 1003.0
20191013153607 65 225 0.0 0.0 0.00 0.00 0.00 50 1003.2
20191013152108 65 180 0.0 0.0 0.00 0.00 0.00 49 1003.1
20191013151608 65 203 3.0 3.0 0.00 0.00 0.00 49 1003.0
20191013151108 65 203 4.0 4.0 0.00 0.00 0.00 49 1002.8
20191013150608 65 203 1.0 1.0 0.00 0.00 0.00 49 1003.1
20191013150108 65 203 2.0 2.0 0.00 0.00 0.00 49 1003.0
20191013144608 65 180 0.0 0.0 0.00 0.00 0.00 49 1003.1
20191013144108 65 180 0.0 0.0 0.00 0.00 0.00 48 1003.0
20191013143608 65 135 1.0 1.0 0.00 0.00 0.00 48 1003.2
20191013143108 65 180 0.0 0.0 0.00 0.00 0.00 48 1003.1
20191013142108 65 203 2.0 2.0 0.00 0.00 0.00 48 1003.1
20191013141608 66 180 0.0 0.0 0.00 0.00 0.00 48 1003.1
20191013141108 66 180 2.0 2.0 0.00 0.00 0.00 47 1003.2
20191013140607 66 180 0.0 0.0 0.00 0.00 0.00 47 1003.2
20191013140107 66 180 0.0 0.0 0.00 0.00 0.00 47 1003.2
20191013135608 66 180 1.0 1.0 0.00 0.00 0.00 47 1003.4
20191013134108 66 225 0.0 0.0 0.00 0.00 0.00 47 1003.3
20191013133608 66 180 0.0 0.0 0.00 0.00 0.00 47 1003.3
20191013133108 66 203 1.0 1.0 0.00 0.00 0.00 47 1003.4
20191013132607 66 180 3.0 3.0 0.00 0.00 0.00 47 1003.7
20191013132108 66 180 0.0 0.0 0.00 0.00 0.00 47 1003.7
20191013131607 66 180 0.0 0.0 0.00 0.00 0.00 47 1003.8
20191013131108 66 180 0.0 0.0 0.00 0.00 0.00 47 1003.8
20191013130108 66 180 0.0 0.0 0.00 0.00 0.00 47 1004.1
20191013125607 66 180 0.0 0.0 0.00 0.00 0.00 47 1004.2
20191013124608 65 180 2.0 2.0 0.00 0.00 0.00 47 1004.3
20191013124108 65 180 0.0 0.0 0.00 0.00 0.00 47 1004.4
20191013123607 65 338 1.0 3.0 0.00 0.00 0.00 47 1004.5
20191013123108 65 203 3.0 3.0 0.00 0.00 0.00 47 1004.6
20191013122608 65 203 0.0 0.0 0.00 0.00 0.00 47 1004.6
20191013121608 64 338 0.0 1.0 0.00 0.00 0.00 47 1004.9
20191013121108 64 203 2.0 2.0 0.00 0.00 0.00 48 1005.0
20191013120108 63 203 0.0 0.0 0.00 0.00 0.00 47 1004.8
20191013115607 62 203 0.0 0.0 0.00 0.00 0.00 48 1004.8
20191013115109 62 338 0.0 0.0 0.00 0.00 0.00 48 1005.0
20191013114108 62 203 0.0 0.0 0.00 0.00 0.00 48 1004.8
20191013113608 62 203 0.0 0.0 0.00 0.00 0.00 48 1004.9
20191013113108 62 203 0.0 0.0 0.00 0.00 0.00 48 1005.3
20191013111608 62 203 0.0 0.0 0.00 0.00 0.00 48 1005.7
20191013110608 62 203 0.0 0.0 0.00 0.00 0.00 48 1005.7
20191013110108 63 180 0.0 0.0 0.00 0.00 0.00 49 1005.8
20191013105108 63 203 0.0 0.0 0.00 0.00 0.00 48 1006.0
20191013104108 62 203 4.0 4.0 0.00 0.00 0.00 48 1005.9
20191013103108 62 203 4.0 4.0 0.00 0.00 0.00 48 1005.9
20191013102607 62 203 0.0 0.0 0.00 0.00 0.00 49 1005.9
20191013102108 61 180 0.0 0.0 0.00 0.00 0.00 49 1006.1
20191013100608 61 180 2.0 2.0 0.00 0.00 0.00 49 1006.1
20191013095608 60 203 4.0 4.0 0.00 0.00 0.00 50 1005.8
20191013095108 60 180 0.0 0.0 0.00 0.00 0.00 50 1006.0
20191013094108 59 180 2.0 3.0 0.00 0.00 0.00 50 1005.9
20191013093608 59 203 0.0 0.0 0.00 0.00 0.00 50 1005.9
20191013092607 58 180 0.0 0.0 0.00 0.00 0.00 51 1005.9
20191013091608 58 315 0.0 0.0 0.00 0.00 0.00 51 1006.1
20191013090107 58 338 0.0 0.0 0.00 0.00 0.00 51 1006.6
20191013085108 57 180 0.0 0.0 0.00 0.00 0.00 51 1006.7
20191013084608 57 338 0.0 0.0 0.00 0.00 0.00 51 1006.3
20191013084108 57 203 0.0 0.0 0.00 0.00 0.00 51 1006.5
20191013083108 57 113 0.0 0.0 0.00 0.00 0.00 51 1006.5
20191013082608 57 338 0.0 0.0 0.00 0.00 0.00 51 1006.4
20191013081108 56 113 0.0 0.0 0.00 0.00 0.00 52 1006.3
20191013080107 56 113 0.0 0.0 0.00 0.00 0.00 52 1006.3
20191013075108 55 338 0.0 0.0 0.00 0.00 0.00 52 1006.3
20191013074108 55 338 0.0 0.0 0.00 0.00 0.00 52 1006.2
20191013073108 54 113 0.0 0.0 0.00 0.00 0.00 53 1006.5
20191013072608 54 113 0.0 0.0 0.00 0.00 0.00 53 1006.4
20191013071608 54 338 0.0 0.0 0.00 0.00 0.00 53 1006.3
20191013071108 53 113 0.0 0.0 0.00 0.00 0.00 53 1006.5
20191013065608 53 315 0.0 0.0 0.00 0.00 0.00 54 1006.7
20191013063608 53 113 0.0 0.0 0.00 0.00 0.00 54 1006.8
20191013063108 53 113 0.0 0.0 0.00 0.00 0.00 54 1006.7
20191013060608 53 113 0.0 0.0 0.00 0.00 0.00 54 1006.8
20191013055608 53 113 0.0 0.0 0.00 0.00 0.00 54 1006.8
20191013054107 53 113 0.0 0.0 0.00 0.00 0.00 54 1006.7
20191013053607 53 113 0.0 0.0 0.00 0.00 0.00 54 1006.7
20191013052608 53 135 0.0 0.0 0.00 0.00 0.00 54 1006.7
20191013050607 53 135 0.0 0.0 0.00 0.00 0.00 54 1006.7
20191013045607 53 338 0.0 0.0 0.00 0.00 0.00 54 1006.7
20191013044108 53 135 0.0 0.0 0.00 0.00 0.00 55 1006.9
20191013043607 53 158 0.0 0.0 0.00 0.00 0.00 55 1006.9
20191013042607 53 158 0.0 0.0 0.00 0.00 0.00 55 1007.1
20191013042107 53 158 0.0 0.0 0.00 0.00 0.00 55 1007.1
20191013041107 53 113 0.0 0.0 0.00 0.00 0.00 55 1007.1
20191013040608 53 113 0.0 0.0 0.00 0.00 0.00 55 1006.9
20191013034608 53 113 0.0 0.0 0.00 0.00 0.00 55 1007.2
20191013034107 53 113 0.0 0.0 0.00 0.00 0.00 55 1007.2
20191013033108 53 113 0.0 0.0 0.00 0.00 0.00 55 1007.2
20191013032607 53 113 0.0 0.0 0.00 0.00 0.00 55 1007.3
20191013031607 53 113 0.0 0.0 0.00 0.00 0.00 55 1007.5
20191013031107 53 113 0.0 0.0 0.00 0.00 0.00 55 1007.6
20191013030608 53 113 0.0 0.0 0.00 0.00 0.00 55 1007.6
20191013030108 53 113 0.0 0.0 0.00 0.00 0.00 55 1007.7